WEATHER DATA

YESTERDAY
Time Temp. Dewp. Hum. Wind dir Wind speed Wind gust Bar. 1h Prec. 24h Prec.
00:01 3.9 2.7 92 286 0.6 1.4 1019.7 0.8010 0.0000
00:11 3.9 2.7 92 237 0.6 1.7 1019.9 0.8010 0.0000
00:20 4 2.8 92 270 0.3 0.8 1019.9 0.8010 0.0000
00:31 4 2.8 92 135 0.3 0.8 1019.9 0.8010 0.0000
00:41 4 2.8 92 270 0.6 1.7 1020.1 0.4800 0.2000
00:51 4 2.8 92 119 0.6 1.4 1020 0.3200 0.2000
01:01 4.1 2.9 92 225 0.3 0.6 1020.2 0.1600 0.2000
01:11 4.1 2.9 92 221 0.8 1.4 1020.2 0.1600 0.2000
01:21 4 2.8 92 228 1.9 3.1 1020.2 0.1600 0.2000
01:31 4.1 2.9 92 233 1.4 2.5 1020.1 0.3200 0.3000
01:42 4.3 3.1 92 149 0.6 1.1 1020.1 0.3200 0.5000
01:51 4.4 3.2 92 135 0.3 1.1 1020 0.3200 0.5000
02:01 4.5 3.3 92 189 0.3 0.8 1020.1 0.3200 0.5000
02:12 4.6 3.4 92 171 0.3 0.8 1020.1 0.6400 0.8000
02:22 4.7 3.5 92 231 0.3 1.1 1020.1 0.6400 0.8000
02:30 4.7 3.5 92 270 0.3 0.8 1020.1 0.4800 0.8000
02:41 4.8 3.6 92 315 0.6 1.1 1020.1 0.3200 0.8000
02:50 4.8 3.6 92 270 0.3 1.1 1020 0.3200 0.8000
03:00 4.7 3.5 92 235 0.3 0.8 1020 0.3200 0.8000
03:10 4.6 3.4 92 90 0.6 1.7 1020.1 0.1600 1.0000
03:21 4.6 3.4 92 270 0.3 0.8 1020 0.1600 1.0000
03:30 4.6 3.4 92 233 0.6 1.4 1019.7 0.1600 1.0000
03:40 4.4 3.2 92 225 0.8 1.4 1019.7 0.1600 1.0000
03:51 4.3 3.1 92 232 0.6 1.4 1019.9 0.1600 1.0000
04:01 4.4 3.2 92 326 0.3 1.4 1020 0.1600 1.0000
04:11 4.4 3.2 92 218 0.6 1.1 1020 0.0000 1.0000
04:21 4.4 3.2 92 230 0.8 1.4 1020 0.0000 1.0000
04:31 4.4 3.2 92 235 0.6 1.1 1020.1 0.0000 1.0000
04:41 4.5 3.3 92 236 0.6 1.1 1020.1 0.0000 1.0000
04:51 4.5 3.3 92 234 0.6 1.1 1020 0.0000 1.0000
05:01 4.5 3.3 92 270 0.3 0.8 1020 0.0000 1.0000
05:11 4.6 3.4 92 232 0.3 0.8 1020 0.0000 1.0000
05:21 4.6 3.4 92 270 0.3 0.6 1020 0.0000 1.0000
05:31 4.7 3.5 92 233 0.3 0.8 1019.9 0.0000 1.0000
05:41 4.6 3.4 92 270 0.3 0.8 1020 0.0000 1.0000
05:51 4.6 3.4 92 239 0.3 0.8 1020.1 0.0000 1.0000
06:01 4.5 3.3 92 323 0.6 0.8 1020.1 0.0000 1.0000
06:12 4.4 3.2 92 320 0.3 0.8 1020.1 0.0000 1.0000
06:21 4.4 3.2 92 223 1.1 1.7 1020.1 0.0000 1.0000
06:31 4.6 3.4 92 225 1.1 1.7 1020.3 0.0000 1.0000
06:42 4.9 3.9 93 270 0.6 1.4 1020.4 0.1600 1.1000
06:52 4.8 3.6 92 270 0.3 1.1 1020.4 0.3200 1.3000
07:01 4.6 3.4 92 270 0.3 0.8 1020.5 0.3200 1.3000
07:11 4.7 3.5 92 248 0.6 1.1 1020.6 0.3200 1.3000
07:22 4.8 3.8 93 227 0.6 1.4 1020.8 0.3200 1.3000
07:29 5 4 93 235 0.3 0.8 1020.7 0.4800 1.4000
07:40 4.9 3.7 92 225 0.6 1.1 1020.5 0.3200 1.4000
07:49 4.8 3.6 92 214 0.6 0.8 1020.5 0.1600 1.4000
07:59 4.8 3.8 93 228 0.6 0.8 1020.6 0.1600 1.4000
08:10 4.8 3.8 93 315 0.3 0.8 1020.6 0.3200 1.6000
08:20 4.6 3.4 92 322 0.6 1.1 1020.7 0.3200 1.6000
08:30 4.5 3.3 92 270 0.3 0.8 1020.6 0.1600 1.6000
08:39 4.6 3.6 93 270 0.3 1.1 1020.7 0.1600 1.6000
08:50 4.8 3.8 93 213 0.6 1.4 1020.7 0.1600 1.6000
09:00 5 4 93 230 0.8 1.4 1020.8 0.1600 1.6000
09:10 5.2 4.2 93 248 0.6 1.4 1020.8 0.0000 1.6000
09:20 5.1 4.1 93 322 0.3 1.1 1020.8 0.0000 1.6000
09:30 5.1 4.1 93 270 0.6 1.1 1020.9 0.0000 1.6000
09:40 5.2 4.2 93 225 0.3 0.8 1020.9 0.0000 1.6000
09:50 5.3 4.3 93 225 0.6 1.4 1020.9 0.0000 1.6000
10:00 5.5 4.5 93 270 0.3 1.1 1021 0.0000 1.6000
10:10 5.6 4.6 93 333 0.3 0.8 1021.2 0.0000 1.6000
10:20 5.7 4.7 93 270 0.3 1.1 1021.4 0.0000 1.6000
10:31 5.9 4.9 93 0 0.3 1.1 1021.4 0.0000 1.6000
10:43 6.1 5.1 93 270 0.3 0.6 1021.2 0.0000 1.6000
10:53 6.2 5.2 93 217 0.3 0.8 1021.4 0.0000 1.6000
11:03 6.4 5.4 93 270 0.3 0.8 1021.4 0.0000 1.6000
11:12 6.7 5.8 94 217 0.6 1.7 1021.6 0.0000 1.6000
11:23 6.9 6 94 251 0.6 1.9 1021.5 0.0000 1.6000
11:33 6.9 5.8 93 240 0.6 1.7 1021.5 0.0000 1.6000
11:43 7 5.9 93 225 0.8 2.2 1021.4 0.0000 1.6000
11:53 7.1 6 93 270 0.3 1.1 1021.4 0.0000 1.6000
12:03 7.1 6 93 90 0.6 1.4 1021.1 0.0000 1.6000
12:13 7.2 6.1 93 270 0.3 1.1 1021.2 0.0000 1.6000
12:23 7.3 6.2 93 232 0.8 2.2 1021 0.0000 1.6000
12:34 7.5 6.4 93 231 1.4 2.2 1020.7 0.0000 1.6000
12:43 7.8 6.7 93 236 1.1 2.2 1020.6 0.0000 1.6000
12:53 7.9 6.8 93 230 1.4 3.3 1020.4 0.0000 1.6000
13:03 8.1 6.9 92 225 0.6 2.8 1020.4 0.0000 1.6000
13:14 8.3 7.1 92 227 1.1 3.3 1020.4 0.0000 1.6000
13:24 8.3 6.9 91 237 1.9 3.9 1020.3 0.0000 1.6000
13:33 8.3 6.9 91 217 0.8 3.6 1020 0.0000 1.6000
13:44 8.4 6.9 90 226 1.7 2.5 1019.9 0.0000 1.6000
13:54 8.6 7.1 90 223 1.1 2.2 1019.7 0.0000 1.6000
14:04 8.7 7.2 90 288 0.6 2.2 1019.5 0.0000 1.6000
14:14 8.8 7.1 89 234 0.6 2.5 1019.4 0.0000 1.6000
14:24 8.8 6.9 88 235 0.6 1.9 1019.5 0.0000 1.6000
14:34 8.7 6.8 88 235 1.4 3.9 1019.3 0.1600 1.8000
14:44 8.4 6.4 87 233 2.2 5 1018.8 0.3200 1.9000
14:45 8.4 6.4 87 233 1.7 5 1018.8 0.4800 2.1000
14:55 8.3 6.4 88 220 0.8 2.5 1018.7 0.4800 2.1000
15:06 8.3 6.4 88 270 1.1 2.5 1019.1 0.4800 2.1000
15:16 8.5 6.6 88 293 0.6 2.5 1019.2 0.4800 2.1000
15:25 8.5 6.6 88 270 0.3 1.1 1019.3 0.3200 2.1000
15:36 8.5 6.6 88 228 1.4 2.5 1018.6 0.1600 2.1000
15:46 8.7 7 89 231 1.1 3.1 1018.6 0.0000 2.1000
15:56 8.7 6.8 88 193 0.8 1.9 1018.6 0.0000 2.1000
16:06 8.8 6.9 88 225 0.8 2.5 1018.8 0.0000 2.1000
16:16 8.8 6.9 88 247 0.6 1.7 1018.8 0.0000 2.1000
16:26 8.8 6.9 88 270 0.6 1.4 1019 0.0000 2.1000
16:36 8.9 7 88 236 1.1 2.8 1019.1 0.0000 2.1000
16:46 8.9 7 88 240 1.1 2.5 1018.9 0.0000 2.1000
16:56 8.9 7 88 296 0.6 1.9 1018.9 0.0000 2.1000
17:06 8.9 6.9 87 315 0.6 2.5 1018.9 0.0000 2.1000
17:16 8.9 6.9 87 225 0.8 1.9 1018.9 0.0000 2.1000
17:26 8.9 6.9 87 307 0.6 2.2 1019 0.0000 2.1000
17:36 8.9 6.9 87 311 0.8 1.7 1019 0.0000 2.1000
17:46 8.8 6.8 87 270 0.3 0.8 1019.2 0.0000 2.1000
17:57 8.8 6.9 88 239 0.6 1.9 1019.5 0.0000 2.1000
18:06 8.8 6.9 88 270 0.6 1.4 1019.9 0.0000 2.1000
18:16 9 7.1 88 231 1.4 3.3 1020 0.0000 2.1000
18:26 9 7.1 88 243 0.6 1.4 1020.2 0.0000 2.1000
18:37 9.1 7.2 88 236 1.1 2.5 1020.3 0.0000 2.1000
18:46 9.2 7.2 87 219 0.8 2.5 1020.4 0.0000 2.1000
18:56 9.2 7.2 87 228 0.6 1.7 1020.6 0.0000 2.1000
19:07 9.1 7.1 87 231 1.4 2.5 1020.7 0.0000 2.1000
19:17 9.1 7.1 87 225 1.4 3.9 1020.6 0.0000 2.1000
19:26 9 7 87 236 0.8 2.5 1020.5 0.0000 2.1000
19:37 9 7 87 247 0.6 1.9 1020.5 0.0000 2.1000
19:47 9 7.1 88 236 0.3 0.8 1020.7 0.0000 2.1000
19:57 9 7.1 88 270 0.3 0.6 1020.7 0.0000 2.1000
20:07 8.9 7 88 270 0.3 0.8 1020.8 0.0000 2.1000
20:17 8.9 7 88 315 0.6 1.4 1020.8 0.0000 2.1000
20:27 8.9 7 88 229 0.8 2.2 1020.8 0.0000 2.1000
20:37 8.9 7 88 244 0.8 2.2 1020.9 0.0000 2.1000
20:47 8.8 6.9 88 286 0.6 1.4 1021 0.0000 2.1000
20:57 8.8 6.9 88 254 0.6 1.7 1021.1 0.0000 2.1000
21:07 8.7 6.8 88 315 0.6 1.7 1021 0.0000 2.1000
21:17 8.7 6.8 88 270 0.3 0.8 1021 0.0000 2.1000
21:28 8.7 6.8 88 270 0.3 0.8 1020.9 0.0000 2.1000
21:37 8.7 6.8 88 238 0.8 1.9 1020.9 0.0000 2.1000
21:47 8.7 6.8 88 270 0.6 1.1 1021.1 0.0000 2.1000
21:57 8.5 6.6 88 270 0.6 0.8 1021.2 0.0000 2.1000
22:08 8.4 6.5 88 270 0.3 0.8 1021.4 0.0000 2.1000
22:17 8.1 6.2 88 238 0.6 1.1 1021.5 0.0000 2.1000
22:27 7.9 6 88 226 0.8 1.4 1021.5 0.0000 2.1000
22:38 7.8 6.1 89 227 0.6 1.1 1021.5 0.0000 2.1000
22:48 7.7 6 89 270 0.3 1.1 1021.4 0.0000 2.1000
22:57 7.6 5.9 89 224 1.4 2.5 1021 0.0000 2.1000
23:08 7.7 6 89 226 1.1 1.7 1021 0.0000 2.1000
23:18 7.7 6.2 90 226 1.4 2.2 1021 0.0000 2.1000
23:28 8 6.5 90 255 0.8 1.4 1021 0.0000 2.1000
23:38 7.9 6.2 89 303 0.8 1.7 1021.1 0.0000 2.1000
23:48 7.7 6 89 311 0.8 1.4 1021.4 0.0000

DAY STATISTIC

2021-12-06
TEMPERATURE
AVERAGE
6.7
HIGH
9.2
18:46
LOW
3.9
00:01
PRESSURE
AVERAGE
1020.3
HIGH
1021.6
11:12
LOW
1018.6
15:36
DEWPOINT
AVERAGE
5.2
HIGH
7.2
14:04
LOW
2.7
00:01
HUMIDITY
AVERAGE
91
HIGH
94
11:12
LOW
87
14:44
WIND SPEED
AVERAGE
0.7
HIGH
2.2
14:44
WIND GUST
AVERAGE
1.6
HIGH
5.0
14:44
WIND DIRECTION
PREVAILING
SW
52.8%
N
0.7
NE
0.0
E
1.4
SE
2.8
S
2.1
SW
52.8
W
28.5
NW
11.8
PRECIPITATION
RAIN HOUR
0.8
RAIN DAY
2.1
TEMPERATURE (°C)
LOW
3.9
HIGH
9.2
AVERAGE
6.7
PRESSURE (hpa)
LOW
1018.6
HIGH
1021.6
AVERAGE
1020.3
DEVICE